sensor_id;sensor_type;location;lat;lon;timestamp;temperature;humidity
65122;HTU21D;51701;45.036;38.924;2022-07-30T00:00:53;25.08;67.21
65122;HTU21D;51701;45.036;38.924;2022-07-30T00:03:19;25.10;66.66
65122;HTU21D;51701;45.036;38.924;2022-07-30T00:05:45;25.01;66.35
65122;HTU21D;51701;45.036;38.924;2022-07-30T00:08:11;24.93;68.84
65122;HTU21D;51701;45.036;38.924;2022-07-30T00:10:36;24.97;68.36
65122;HTU21D;51701;45.036;38.924;2022-07-30T00:13:03;24.98;67.51
65122;HTU21D;51701;45.036;38.924;2022-07-30T00:15:29;24.91;67.20
65122;HTU21D;51701;45.036;38.924;2022-07-30T00:17:55;0.00;69.42
65122;HTU21D;51701;45.036;38.924;2022-07-30T00:20:21;0.00;69.65
65122;HTU21D;51701;45.036;38.924;2022-07-30T00:22:46;24.73;68.46
65122;HTU21D;51701;45.036;38.924;2022-07-30T00:25:12;24.64;69.26
65122;HTU21D;51701;45.036;38.924;2022-07-30T00:27:38;24.64;70.49
65122;HTU21D;51701;45.036;38.924;2022-07-30T00:30:04;24.64;69.65
65122;HTU21D;51701;45.036;38.924;2022-07-30T00:32:30;24.55;69.42
65122;HTU21D;51701;45.036;38.924;2022-07-30T00:34:56;24.46;70.13
65122;HTU21D;51701;45.036;38.924;2022-07-30T00:37:21;24.50;71.04
65122;HTU21D;51701;45.036;38.924;2022-07-30T00:39:47;24.51;69.81
65122;HTU21D;51701;45.036;38.924;2022-07-30T00:42:13;24.40;69.33
65122;HTU21D;51701;45.036;38.924;2022-07-30T00:44:39;0.00;71.08
65122;HTU21D;51701;45.036;38.924;2022-07-30T00:47:05;0.00;71.61
65122;HTU21D;51701;45.036;38.924;2022-07-30T00:49:31;24.19;70.55
65122;HTU21D;51701;45.036;38.924;2022-07-30T00:51:57;24.14;71.14
65122;HTU21D;51701;45.036;38.924;2022-07-30T00:54:22;24.23;71.99
65122;HTU21D;51701;45.036;38.924;2022-07-30T00:56:48;24.26;70.80
65122;HTU21D;51701;45.036;38.924;2022-07-30T00:59:15;24.21;71.23
65122;HTU21D;51701;45.036;38.924;2022-07-30T01:01:40;24.19;72.33
65122;HTU21D;51701;45.036;38.924;2022-07-30T01:04:06;24.16;71.34
65122;HTU21D;51701;45.036;38.924;2022-07-30T01:06:38;24.08;71.40
65122;HTU21D;51701;45.036;38.924;2022-07-30T01:09:05;24.03;72.21
65122;HTU21D;51701;45.036;38.924;2022-07-30T01:11:33;0.00;71.95
65122;HTU21D;51701;45.036;38.924;2022-07-30T01:14:00;24.06;70.74
65122;HTU21D;51701;45.036;38.924;2022-07-30T01:16:26;24.02;72.64
65122;HTU21D;51701;45.036;38.924;2022-07-30T01:18:52;24.03;72.41
65122;HTU21D;51701;45.036;38.924;2022-07-30T01:21:38;23.98;71.05
65122;HTU21D;51701;45.036;38.924;2022-07-30T01:24:09;23.89;73.84
65122;HTU21D;51701;45.036;38.924;2022-07-30T01:26:36;23.95;73.73
65122;HTU21D;51701;45.036;38.924;2022-07-30T01:29:02;23.97;72.19
65122;HTU21D;51701;45.036;38.924;2022-07-30T01:31:30;23.89;71.67
65122;HTU21D;51701;45.036;38.924;2022-07-30T01:33:57;0.00;73.49
65122;HTU21D;51701;45.036;38.924;2022-07-30T01:36:24;23.87;71.80
65122;HTU21D;51701;45.036;38.924;2022-07-30T01:38:51;0.00;72.35
65122;HTU21D;51701;45.036;38.924;2022-07-30T01:41:17;23.86;73.44
65122;HTU21D;51701;45.036;38.924;2022-07-30T01:57:12;23.81;73.04
65122;HTU21D;51701;45.036;38.924;2022-07-30T01:59:40;23.90;73.18
65122;HTU21D;51701;45.036;38.924;2022-07-30T02:02:06;23.97;71.67
65122;HTU21D;51701;45.036;38.924;2022-07-30T02:04:32;23.88;71.26
65122;HTU21D;51701;45.036;38.924;2022-07-30T02:06:59;0.00;72.94
65122;HTU21D;51701;45.036;38.924;2022-07-30T02:09:32;23.95;73.33
65122;HTU21D;51701;45.036;38.924;2022-07-30T02:11:58;23.95;71.93
65122;HTU21D;51701;45.036;38.924;2022-07-30T02:14:51;0.00;72.98
65122;HTU21D;51701;45.036;38.924;2022-07-30T02:17:20;23.84;72.93
65122;HTU21D;51701;45.036;38.924;2022-07-30T02:19:48;23.85;71.80
65122;HTU21D;51701;45.036;38.924;2022-07-30T02:22:14;23.85;73.26
65122;HTU21D;51701;45.036;38.924;2022-07-30T02:24:40;23.95;73.28
65122;HTU21D;51701;45.036;38.924;2022-07-30T02:27:11;23.99;71.65
65122;HTU21D;51701;45.036;38.924;2022-07-30T02:29:39;0.00;71.26
65122;HTU21D;51701;45.036;38.924;2022-07-30T02:32:09;24.15;71.63
65122;HTU21D;51701;45.036;38.924;2022-07-30T02:34:39;24.32;71.29
65122;HTU21D;51701;45.036;38.924;2022-07-30T02:37:06;24.47;70.65
65122;HTU21D;51701;45.036;38.924;2022-07-30T02:39:35;0.00;70.68
65122;HTU21D;51701;45.036;38.924;2022-07-30T02:42:01;24.77;71.58
65122;HTU21D;51701;45.036;38.924;2022-07-30T02:44:28;24.95;70.19
65122;HTU21D;51701;45.036;38.924;2022-07-30T02:46:55;25.18;70.53
65122;HTU21D;51701;45.036;38.924;2022-07-30T02:49:44;0.00;69.45
65122;HTU21D;51701;45.036;38.924;2022-07-30T02:52:11;0.00;68.78
65122;HTU21D;51701;45.036;38.924;2022-07-30T02:54:39;25.88;69.51
65122;HTU21D;51701;45.036;38.924;2022-07-30T02:57:05;25.96;68.71
65122;HTU21D;51701;45.036;38.924;2022-07-30T02:59:32;26.27;70.07
65122;HTU21D;51701;45.036;38.924;2022-07-30T03:02:00;26.37;69.38
65122;HTU21D;51701;45.036;38.924;2022-07-30T03:04:27;26.34;70.18
65122;HTU21D;51701;45.036;38.924;2022-07-30T03:06:54;26.55;69.21
65122;HTU21D;51701;45.036;38.924;2022-07-30T03:09:20;26.75;69.88
65122;HTU21D;51701;45.036;38.924;2022-07-30T03:11:48;26.70;69.69
65122;HTU21D;51701;45.036;38.924;2022-07-30T03:14:16;26.84;68.94
65122;HTU21D;51701;45.036;38.924;2022-07-30T03:16:42;27.28;68.15
65122;HTU21D;51701;45.036;38.924;2022-07-30T03:19:09;27.38;68.19
65122;HTU21D;51701;45.036;38.924;2022-07-30T03:21:37;27.31;67.59
65122;HTU21D;51701;45.036;38.924;2022-07-30T03:24:04;0.00;66.95
65122;HTU21D;51701;45.036;38.924;2022-07-30T03:26:31;27.91;66.24
65122;HTU21D;51701;45.036;38.924;2022-07-30T03:28:58;27.96;66.05
65122;HTU21D;51701;45.036;38.924;2022-07-30T03:31:24;0.00;65.82
65122;HTU21D;51701;45.036;38.924;2022-07-30T03:33:50;0.00;64.13
65122;HTU21D;51701;45.036;38.924;2022-07-30T03:36:16;28.78;63.15
65122;HTU21D;51701;45.036;38.924;2022-07-30T03:38:43;28.59;63.83
65122;HTU21D;51701;45.036;38.924;2022-07-30T03:41:09;28.23;64.47
65122;HTU21D;51701;45.036;38.924;2022-07-30T03:43:37;0.00;65.54
65122;HTU21D;51701;45.036;38.924;2022-07-30T03:46:04;27.64;66.27
65122;HTU21D;51701;45.036;38.924;2022-07-30T03:48:36;27.56;66.11
65122;HTU21D;51701;45.036;38.924;2022-07-30T03:51:03;27.93;64.95
65122;HTU21D;51701;45.036;38.924;2022-07-30T03:53:31;28.30;63.98
65122;HTU21D;51701;45.036;38.924;2022-07-30T03:56:17;28.75;63.20
65122;HTU21D;51701;45.036;38.924;2022-07-30T03:59:04;29.67;59.68
65122;HTU21D;51701;45.036;38.924;2022-07-30T04:01:32;29.98;59.57
65122;HTU21D;51701;45.036;38.924;2022-07-30T04:04:09;30.12;57.67
65122;HTU21D;51701;45.036;38.924;2022-07-30T04:06:36;30.78;58.22
65122;HTU21D;51701;45.036;38.924;2022-07-30T04:09:08;31.06;55.51
65122;HTU21D;51701;45.036;38.924;2022-07-30T04:11:35;30.85;56.00
65122;HTU21D;51701;45.036;38.924;2022-07-30T04:14:05;30.90;57.18
65122;HTU21D;51701;45.036;38.924;2022-07-30T04:19:09;31.40;53.08
65122;HTU21D;51701;45.036;38.924;2022-07-30T04:21:37;31.20;53.57
65122;HTU21D;51701;45.036;38.924;2022-07-30T04:24:05;31.72;54.43
65122;HTU21D;51701;45.036;38.924;2022-07-30T04:26:33;31.95;52.84
65122;HTU21D;51701;45.036;38.924;2022-07-30T04:29:00;31.97;52.82
65122;HTU21D;51701;45.036;38.924;2022-07-30T04:31:26;32.08;53.31
65122;HTU21D;51701;45.036;38.924;2022-07-30T04:33:55;0.00;51.68
65122;HTU21D;51701;45.036;38.924;2022-07-30T04:36:29;32.50;52.04
65122;HTU21D;51701;45.036;38.924;2022-07-30T04:38:55;32.52;52.36
65122;HTU21D;51701;45.036;38.924;2022-07-30T04:41:21;33.21;50.91
65122;HTU21D;51701;45.036;38.924;2022-07-30T04:44:05;33.31;50.66
65122;HTU21D;51701;45.036;38.924;2022-07-30T04:46:35;33.21;50.21
65122;HTU21D;51701;45.036;38.924;2022-07-30T04:49:01;33.52;50.58
65122;HTU21D;51701;45.036;38.924;2022-07-30T04:51:34;0.00;49.19
65122;HTU21D;51701;45.036;38.924;2022-07-30T04:54:01;33.67;49.95
65122;HTU21D;51701;45.036;38.924;2022-07-30T04:56:27;33.77;50.08
65122;HTU21D;51701;45.036;38.924;2022-07-30T04:58:54;0.00;48.03
65122;HTU21D;51701;45.036;38.924;2022-07-30T05:01:22;34.53;47.83
65122;HTU21D;51701;45.036;38.924;2022-07-30T05:03:51;34.38;47.99
65122;HTU21D;51701;45.036;38.924;2022-07-30T05:06:19;34.76;48.11
65122;HTU21D;51701;45.036;38.924;2022-07-30T05:08:46;35.11;46.89
65122;HTU21D;51701;45.036;38.924;2022-07-30T05:11:12;34.69;47.13
65122;HTU21D;51701;45.036;38.924;2022-07-30T05:13:41;34.45;48.17
65122;HTU21D;51701;45.036;38.924;2022-07-30T05:16:09;35.07;46.48
65122;HTU21D;51701;45.036;38.924;2022-07-30T05:18:36;35.00;46.30
65122;HTU21D;51701;45.036;38.924;2022-07-30T05:21:02;34.76;46.34
65122;HTU21D;51701;45.036;38.924;2022-07-30T05:23:40;35.20;46.60
65122;HTU21D;51701;45.036;38.924;2022-07-30T05:26:18;35.47;44.87
65122;HTU21D;51701;45.036;38.924;2022-07-30T05:28:44;35.25;45.41
65122;HTU21D;51701;45.036;38.924;2022-07-30T05:31:12;35.29;46.22
65122;HTU21D;51701;45.036;38.924;2022-07-30T05:33:39;35.85;44.48
65122;HTU21D;51701;45.036;38.924;2022-07-30T05:36:07;35.66;44.81
65122;HTU21D;51701;45.036;38.924;2022-07-30T05:38:36;35.57;45.46
65122;HTU21D;51701;45.036;38.924;2022-07-30T05:41:22;36.46;43.76
65122;HTU21D;51701;45.036;38.924;2022-07-30T05:44:08;36.32;43.28
65122;HTU21D;51701;45.036;38.924;2022-07-30T05:46:34;35.98;44.03
65122;HTU21D;51701;45.036;38.924;2022-07-30T05:48:59;0.00;44.23
65122;HTU21D;51701;45.036;38.924;2022-07-30T05:51:25;36.83;42.39
65122;HTU21D;51701;45.036;38.924;2022-07-30T05:53:52;36.53;43.00
65122;HTU21D;51701;45.036;38.924;2022-07-30T05:56:18;36.55;43.56
65122;HTU21D;51701;45.036;38.924;2022-07-30T05:59:00;37.38;40.84
65122;HTU21D;51701;45.036;38.924;2022-07-30T06:01:48;37.13;41.16
65122;HTU21D;51701;45.036;38.924;2022-07-30T06:04:20;37.01;42.32
65122;HTU21D;51701;45.036;38.924;2022-07-30T06:06:51;37.81;41.33
65122;HTU21D;51701;45.036;38.924;2022-07-30T06:09:16;37.85;40.62
65122;HTU21D;51701;45.036;38.924;2022-07-30T06:11:42;37.56;40.84
65122;HTU21D;51701;45.036;38.924;2022-07-30T06:14:08;37.78;40.84
65122;HTU21D;51701;45.036;38.924;2022-07-30T06:16:35;37.85;39.66
65122;HTU21D;51701;45.036;38.924;2022-07-30T06:19:01;37.42;40.27
65122;HTU21D;51701;45.036;38.924;2022-07-30T06:21:40;0.00;41.09
65122;HTU21D;51701;45.036;38.924;2022-07-30T06:24:10;38.14;39.73
65122;HTU21D;51701;45.036;38.924;2022-07-30T06:26:48;37.95;40.02
65122;HTU21D;51701;45.036;38.924;2022-07-30T06:29:14;37.79;40.74
65122;HTU21D;51701;45.036;38.924;2022-07-30T06:31:41;0.00;39.68
65122;HTU21D;51701;45.036;38.924;2022-07-30T06:34:08;38.22;38.87
65122;HTU21D;51701;45.036;38.924;2022-07-30T06:36:38;37.92;39.74
65122;HTU21D;51701;45.036;38.924;2022-07-30T06:39:11;38.56;39.86
65122;HTU21D;51701;45.036;38.924;2022-07-30T06:42:12;38.50;38.00
65122;HTU21D;51701;45.036;38.924;2022-07-30T06:45:00;38.01;39.04
65122;HTU21D;51701;45.036;38.924;2022-07-30T06:47:39;0.00;39.53
65122;HTU21D;51701;45.036;38.924;2022-07-30T06:50:05;0.00;38.31
65122;HTU21D;51701;45.036;38.924;2022-07-30T06:52:33;38.01;38.62
65122;HTU21D;51701;45.036;38.924;2022-07-30T06:54:59;38.01;39.81
65122;HTU21D;51701;45.036;38.924;2022-07-30T06:57:30;38.85;38.20
65122;HTU21D;51701;45.036;38.924;2022-07-30T06:59:58;38.60;38.27
65122;HTU21D;51701;45.036;38.924;2022-07-30T07:02:33;38.33;38.86
65122;HTU21D;51701;45.036;38.924;2022-07-30T07:05:10;39.05;37.62
65122;HTU21D;51701;45.036;38.924;2022-07-30T07:07:39;39.00;37.87
65122;HTU21D;51701;45.036;38.924;2022-07-30T07:10:05;38.73;38.02
65122;HTU21D;51701;45.036;38.924;2022-07-30T07:12:43;39.51;37.34
65122;HTU21D;51701;45.036;38.924;2022-07-30T07:15:10;39.30;37.35
65122;HTU21D;51701;45.036;38.924;2022-07-30T07:17:36;39.08;37.60
65122;HTU21D;51701;45.036;38.924;2022-07-30T07:20:02;39.24;37.82
65122;HTU21D;51701;45.036;38.924;2022-07-30T07:22:35;0.00;36.36
65122;HTU21D;51701;45.036;38.924;2022-07-30T07:25:01;39.45;37.24
65122;HTU21D;51701;45.036;38.924;2022-07-30T07:27:29;39.11;37.78
65122;HTU21D;51701;45.036;38.924;2022-07-30T07:29:58;39.80;36.42
65122;HTU21D;51701;45.036;38.924;2022-07-30T07:32:24;39.72;36.11
65122;HTU21D;51701;45.036;38.924;2022-07-30T07:34:50;39.51;36.62
65122;HTU21D;51701;45.036;38.924;2022-07-30T07:37:16;40.21;36.50
65122;HTU21D;51701;45.036;38.924;2022-07-30T07:39:42;40.25;34.62
65122;HTU21D;51701;45.036;38.924;2022-07-30T07:42:08;39.80;35.76
65122;HTU21D;51701;45.036;38.924;2022-07-30T07:44:36;0.00;36.49
65122;HTU21D;51701;45.036;38.924;2022-07-30T07:47:03;0.00;35.28
65122;HTU21D;51701;45.036;38.924;2022-07-30T07:49:33;39.85;34.62
65122;HTU21D;51701;45.036;38.924;2022-07-30T07:52:00;0.00;35.77
65122;HTU21D;51701;45.036;38.924;2022-07-30T07:54:26;40.30;34.03
65122;HTU21D;51701;45.036;38.924;2022-07-30T07:56:53;39.81;32.98
65122;HTU21D;51701;45.036;38.924;2022-07-30T07:59:28;39.39;32.80
65122;HTU21D;51701;45.036;38.924;2022-07-30T08:01:54;39.69;34.32
65122;HTU21D;51701;45.036;38.924;2022-07-30T08:04:37;0.00;33.25
65122;HTU21D;51701;45.036;38.924;2022-07-30T08:07:03;39.40;32.32
65122;HTU21D;51701;45.036;38.924;2022-07-30T08:09:48;39.43;33.41
65122;HTU21D;51701;45.036;38.924;2022-07-30T08:12:20;39.53;30.28
65122;HTU21D;51701;45.036;38.924;2022-07-30T08:15:14;38.97;31.19
65122;HTU21D;51701;45.036;38.924;2022-07-30T08:17:59;0.00;32.69
65122;HTU21D;51701;45.036;38.924;2022-07-30T08:20:35;0.00;32.65
65122;HTU21D;51701;45.036;38.924;2022-07-30T08:23:03;38.41;33.16
65122;HTU21D;51701;45.036;38.924;2022-07-30T08:25:28;38.23;33.44
65122;HTU21D;51701;45.036;38.924;2022-07-30T08:27:54;0.00;33.51
65122;HTU21D;51701;45.036;38.924;2022-07-30T08:30:21;38.88;33.24
65122;HTU21D;51701;45.036;38.924;2022-07-30T08:32:47;38.69;33.65
65122;HTU21D;51701;45.036;38.924;2022-07-30T08:35:13;39.03;33.87
65122;HTU21D;51701;45.036;38.924;2022-07-30T08:37:39;0.00;34.02
65122;HTU21D;51701;45.036;38.924;2022-07-30T08:40:06;37.17;36.60
65122;HTU21D;51701;45.036;38.924;2022-07-30T08:42:34;35.92;38.48
65122;HTU21D;51701;45.036;38.924;2022-07-30T08:45:00;0.00;39.56
65122;HTU21D;51701;45.036;38.924;2022-07-30T08:47:29;34.60;40.71
65122;HTU21D;51701;45.036;38.924;2022-07-30T08:50:11;34.15;41.37
65122;HTU21D;51701;45.036;38.924;2022-07-30T08:52:58;33.88;41.82
65122;HTU21D;51701;45.036;38.924;2022-07-30T08:55:25;33.71;42.85
65122;HTU21D;51701;45.036;38.924;2022-07-30T08:57:51;33.58;42.76
65122;HTU21D;51701;45.036;38.924;2022-07-30T09:00:17;33.40;43.35
65122;HTU21D;51701;45.036;38.924;2022-07-30T09:02:43;33.37;44.03
65122;HTU21D;51701;45.036;38.924;2022-07-30T09:05:09;33.22;44.43
65122;HTU21D;51701;45.036;38.924;2022-07-30T09:07:35;33.12;44.87
65122;HTU21D;51701;45.036;38.924;2022-07-30T09:10:03;33.13;45.09
65122;HTU21D;51701;45.036;38.924;2022-07-30T09:15:09;33.09;46.32
65122;HTU21D;51701;45.036;38.924;2022-07-30T09:17:45;33.17;44.98
65122;HTU21D;51701;45.036;38.924;2022-07-30T09:20:12;0.00;44.79
65122;HTU21D;51701;45.036;38.924;2022-07-30T09:22:42;33.06;44.98
65122;HTU21D;51701;45.036;38.924;2022-07-30T09:25:48;32.97;44.84
65122;HTU21D;51701;45.036;38.924;2022-07-30T09:28:32;32.96;44.47
65122;HTU21D;51701;45.036;38.924;2022-07-30T09:31:13;33.02;43.77
65122;HTU21D;51701;45.036;38.924;2022-07-30T09:33:57;32.99;44.42
65122;HTU21D;51701;45.036;38.924;2022-07-30T09:36:41;32.98;43.95
65122;HTU21D;51701;45.036;38.924;2022-07-30T09:42:22;33.02;44.23
65122;HTU21D;51701;45.036;38.924;2022-07-30T09:44:52;33.13;44.16
65122;HTU21D;51701;45.036;38.924;2022-07-30T09:50:02;33.26;42.87
65122;HTU21D;51701;45.036;38.924;2022-07-30T09:52:29;33.37;43.64
65122;HTU21D;51701;45.036;38.924;2022-07-30T09:54:54;33.41;42.47
65122;HTU21D;51701;45.036;38.924;2022-07-30T09:57:22;33.38;43.22
65122;HTU21D;51701;45.036;38.924;2022-07-30T09:59:48;33.46;42.68
65122;HTU21D;51701;45.036;38.924;2022-07-30T10:02:14;0.00;42.60
65122;HTU21D;51701;45.036;38.924;2022-07-30T10:07:35;33.49;42.84
65122;HTU21D;51701;45.036;38.924;2022-07-30T10:10:02;33.57;43.01
65122;HTU21D;51701;45.036;38.924;2022-07-30T10:12:30;33.65;42.53
65122;HTU21D;51701;45.036;38.924;2022-07-30T10:14:57;33.68;43.35
65122;HTU21D;51701;45.036;38.924;2022-07-30T10:17:27;33.71;43.42
65122;HTU21D;51701;45.036;38.924;2022-07-30T10:20:18;33.71;42.48
65122;HTU21D;51701;45.036;38.924;2022-07-30T10:23:22;33.63;39.43
65122;HTU21D;51701;45.036;38.924;2022-07-30T10:26:10;33.63;41.10
65122;HTU21D;51701;45.036;38.924;2022-07-30T10:29:02;33.71;41.55
65122;HTU21D;51701;45.036;38.924;2022-07-30T10:31:28;33.81;41.81
65122;HTU21D;51701;45.036;38.924;2022-07-30T10:33:54;33.88;41.23
65122;HTU21D;51701;45.036;38.924;2022-07-30T10:36:20;33.92;40.47
65122;HTU21D;51701;45.036;38.924;2022-07-30T10:38:47;33.94;39.45
65122;HTU21D;51701;45.036;38.924;2022-07-30T10:41:28;33.94;38.78
65122;HTU21D;51701;45.036;38.924;2022-07-30T10:49:12;33.92;37.62
65122;HTU21D;51701;45.036;38.924;2022-07-30T10:51:49;33.89;38.33
65122;HTU21D;51701;45.036;38.924;2022-07-30T10:59:28;34.19;37.27
65122;HTU21D;51701;45.036;38.924;2022-07-30T11:04:28;34.17;41.90
65122;HTU21D;51701;45.036;38.924;2022-07-30T11:09:39;34.12;41.78
65122;HTU21D;51701;45.036;38.924;2022-07-30T11:12:06;34.02;42.54
65122;HTU21D;51701;45.036;38.924;2022-07-30T11:17:10;33.88;42.68
65122;HTU21D;51701;45.036;38.924;2022-07-30T11:20:08;0.00;43.48
65122;HTU21D;51701;45.036;38.924;2022-07-30T11:24:48;33.67;43.87
65122;HTU21D;51701;45.036;38.924;2022-07-30T11:29:59;33.76;43.53
65122;HTU21D;51701;45.036;38.924;2022-07-30T11:32:26;33.82;42.74
65122;HTU21D;51701;45.036;38.924;2022-07-30T11:34:55;33.91;42.93
65122;HTU21D;51701;45.036;38.924;2022-07-30T11:40:20;33.82;41.37
65122;HTU21D;51701;45.036;38.924;2022-07-30T11:42:47;33.79;42.14
65122;HTU21D;51701;45.036;38.924;2022-07-30T11:47:48;33.63;43.01
65122;HTU21D;51701;45.036;38.924;2022-07-30T11:52:47;0.00;42.41
65122;HTU21D;51701;45.036;38.924;2022-07-30T11:55:20;33.74;40.05
65122;HTU21D;51701;45.036;38.924;2022-07-30T11:57:46;33.72;40.70
65122;HTU21D;51701;45.036;38.924;2022-07-30T12:00:12;33.73;41.30
65122;HTU21D;51701;45.036;38.924;2022-07-30T12:02:40;33.68;40.14
65122;HTU21D;51701;45.036;38.924;2022-07-30T12:05:05;33.68;40.58
65122;HTU21D;51701;45.036;38.924;2022-07-30T12:07:31;33.73;40.84
65122;HTU21D;51701;45.036;38.924;2022-07-30T12:12:42;33.88;41.80
65122;HTU21D;51701;45.036;38.924;2022-07-30T12:15:08;33.97;41.65
65122;HTU21D;51701;45.036;38.924;2022-07-30T12:17:43;34.07;41.99
65122;HTU21D;51701;45.036;38.924;2022-07-30T12:20:15;34.12;40.15
65122;HTU21D;51701;45.036;38.924;2022-07-30T12:22:42;34.15;40.68
65122;HTU21D;51701;45.036;38.924;2022-07-30T12:25:08;34.12;41.08
65122;HTU21D;51701;45.036;38.924;2022-07-30T12:27:34;34.05;40.70
65122;HTU21D;51701;45.036;38.924;2022-07-30T12:29:59;34.03;40.62
65122;HTU21D;51701;45.036;38.924;2022-07-30T12:32:25;34.04;40.26
65122;HTU21D;51701;45.036;38.924;2022-07-30T12:34:54;33.97;41.09
65122;HTU21D;51701;45.036;38.924;2022-07-30T12:37:20;33.88;40.65
65122;HTU21D;51701;45.036;38.924;2022-07-30T12:39:46;33.89;40.59
65122;HTU21D;51701;45.036;38.924;2022-07-30T12:42:16;0.00;40.26
65122;HTU21D;51701;45.036;38.924;2022-07-30T12:44:43;0.00;40.78
65122;HTU21D;51701;45.036;38.924;2022-07-30T12:47:20;33.89;41.33
65122;HTU21D;51701;45.036;38.924;2022-07-30T12:49:48;33.97;41.59
65122;HTU21D;51701;45.036;38.924;2022-07-30T12:55:10;33.82;41.09
65122;HTU21D;51701;45.036;38.924;2022-07-30T12:57:52;33.79;41.45
65122;HTU21D;51701;45.036;38.924;2022-07-30T13:00:18;0.00;41.84
65122;HTU21D;51701;45.036;38.924;2022-07-30T13:02:44;0.00;42.07
65122;HTU21D;51701;45.036;38.924;2022-07-30T13:05:10;33.73;41.71
65122;HTU21D;51701;45.036;38.924;2022-07-30T13:07:50;33.76;41.90
65122;HTU21D;51701;45.036;38.924;2022-07-30T13:10:16;33.65;42.28
65122;HTU21D;51701;45.036;38.924;2022-07-30T13:12:46;33.60;42.47
65122;HTU21D;51701;45.036;38.924;2022-07-30T13:15:18;33.61;42.84
65122;HTU21D;51701;45.036;38.924;2022-07-30T13:17:44;33.61;42.43
65122;HTU21D;51701;45.036;38.924;2022-07-30T13:20:10;33.60;42.77
65122;HTU21D;51701;45.036;38.924;2022-07-30T13:22:36;33.67;43.02
65122;HTU21D;51701;45.036;38.924;2022-07-30T13:25:01;33.74;43.01
65122;HTU21D;51701;45.036;38.924;2022-07-30T13:27:27;33.77;42.94
65122;HTU21D;51701;45.036;38.924;2022-07-30T13:29:53;33.76;43.57
65122;HTU21D;51701;45.036;38.924;2022-07-30T13:32:19;33.78;43.25
65122;HTU21D;51701;45.036;38.924;2022-07-30T13:34:45;33.80;43.72
65122;HTU21D;51701;45.036;38.924;2022-07-30T13:37:11;33.80;43.80
65122;HTU21D;51701;45.036;38.924;2022-07-30T13:39:36;33.80;43.18
65122;HTU21D;51701;45.036;38.924;2022-07-30T13:42:02;33.79;43.45
65122;HTU21D;51701;45.036;38.924;2022-07-30T13:44:28;33.82;43.73
65122;HTU21D;51701;45.036;38.924;2022-07-30T13:46:54;33.92;43.19
65122;HTU21D;51701;45.036;38.924;2022-07-30T13:49:19;33.94;43.48
65122;HTU21D;51701;45.036;38.924;2022-07-30T13:51:45;34.00;43.49
65122;HTU21D;51701;45.036;38.924;2022-07-30T13:54:11;34.02;43.27
65122;HTU21D;51701;45.036;38.924;2022-07-30T13:56:36;33.96;43.33
65122;HTU21D;51701;45.036;38.924;2022-07-30T13:59:02;33.86;43.53
65122;HTU21D;51701;45.036;38.924;2022-07-30T14:01:29;33.76;44.13
65122;HTU21D;51701;45.036;38.924;2022-07-30T14:03:55;33.71;44.06
65122;HTU21D;51701;45.036;38.924;2022-07-30T14:06:21;33.67;43.77
65122;HTU21D;51701;45.036;38.924;2022-07-30T14:08:46;33.62;43.58
65122;HTU21D;51701;45.036;38.924;2022-07-30T14:11:12;33.57;44.47
65122;HTU21D;51701;45.036;38.924;2022-07-30T14:13:38;33.51;45.09
65122;HTU21D;51701;45.036;38.924;2022-07-30T14:16:04;33.48;44.87
65122;HTU21D;51701;45.036;38.924;2022-07-30T14:18:30;33.46;44.48
65122;HTU21D;51701;45.036;38.924;2022-07-30T14:20:56;33.42;44.84
65122;HTU21D;51701;45.036;38.924;2022-07-30T14:23:22;33.40;44.57
65122;HTU21D;51701;45.036;38.924;2022-07-30T14:25:47;33.38;45.21
65122;HTU21D;51701;45.036;38.924;2022-07-30T14:28:13;33.38;44.79
65122;HTU21D;51701;45.036;38.924;2022-07-30T14:30:39;33.35;44.78
65122;HTU21D;51701;45.036;38.924;2022-07-30T14:33:05;33.36;45.37
65122;HTU21D;51701;45.036;38.924;2022-07-30T14:35:31;33.38;45.32
65122;HTU21D;51701;45.036;38.924;2022-07-30T14:37:56;33.41;45.15
65122;HTU21D;51701;45.036;38.924;2022-07-30T14:40:22;33.40;44.42
65122;HTU21D;51701;45.036;38.924;2022-07-30T14:42:48;33.36;44.29
65122;HTU21D;51701;45.036;38.924;2022-07-30T14:45:14;33.34;44.65
65122;HTU21D;51701;45.036;38.924;2022-07-30T14:47:40;33.34;44.84
65122;HTU21D;51701;45.036;38.924;2022-07-30T14:50:06;33.32;44.51
65122;HTU21D;51701;45.036;38.924;2022-07-30T14:52:34;33.34;44.68
65122;HTU21D;51701;45.036;38.924;2022-07-30T14:55:06;33.36;44.87
65122;HTU21D;51701;45.036;38.924;2022-07-30T14:57:32;33.37;45.14
65122;HTU21D;51701;45.036;38.924;2022-07-30T14:59:58;33.29;45.45
65122;HTU21D;51701;45.036;38.924;2022-07-30T15:02:24;33.22;45.60
65122;HTU21D;51701;45.036;38.924;2022-07-30T15:04:50;33.15;45.72
65122;HTU21D;51701;45.036;38.924;2022-07-30T15:07:15;33.08;46.14
65122;HTU21D;51701;45.036;38.924;2022-07-30T15:09:41;33.04;46.04
65122;HTU21D;51701;45.036;38.924;2022-07-30T15:12:07;32.96;46.28
65122;HTU21D;51701;45.036;38.924;2022-07-30T15:14:37;32.88;46.60
65122;HTU21D;51701;45.036;38.924;2022-07-30T15:17:02;32.86;46.74
65122;HTU21D;51701;45.036;38.924;2022-07-30T15:19:28;32.82;47.25
65122;HTU21D;51701;45.036;38.924;2022-07-30T15:21:54;32.72;47.49
65122;HTU21D;51701;45.036;38.924;2022-07-30T15:24:20;32.62;48.02
65122;HTU21D;51701;45.036;38.924;2022-07-30T15:26:45;32.54;48.70
65122;HTU21D;51701;45.036;38.924;2022-07-30T15:29:11;32.42;48.65
65122;HTU21D;51701;45.036;38.924;2022-07-30T15:31:37;32.29;49.11
65122;HTU21D;51701;45.036;38.924;2022-07-30T15:34:02;32.23;49.34
65122;HTU21D;51701;45.036;38.924;2022-07-30T15:36:29;32.14;49.27
65122;HTU21D;51701;45.036;38.924;2022-07-30T15:38:54;32.09;50.06
65122;HTU21D;51701;45.036;38.924;2022-07-30T15:41:20;31.96;50.87
65122;HTU21D;51701;45.036;38.924;2022-07-30T15:43:46;31.73;51.21
65122;HTU21D;51701;45.036;38.924;2022-07-30T15:46:11;31.57;51.81
65122;HTU21D;51701;45.036;38.924;2022-07-30T15:48:37;31.40;51.98
65122;HTU21D;51701;45.036;38.924;2022-07-30T15:51:03;31.24;52.41
65122;HTU21D;51701;45.036;38.924;2022-07-30T15:53:29;31.13;53.23
65122;HTU21D;51701;45.036;38.924;2022-07-30T15:55:56;31.00;53.27
65122;HTU21D;51701;45.036;38.924;2022-07-30T15:58:22;30.87;54.26
65122;HTU21D;51701;45.036;38.924;2022-07-30T16:00:48;30.71;53.27
65122;HTU21D;51701;45.036;38.924;2022-07-30T16:03:14;30.51;54.01
65122;HTU21D;51701;45.036;38.924;2022-07-30T16:05:39;30.28;54.39
65122;HTU21D;51701;45.036;38.924;2022-07-30T16:08:05;30.06;54.42
65122;HTU21D;51701;45.036;38.924;2022-07-30T16:10:31;29.88;54.71
65122;HTU21D;51701;45.036;38.924;2022-07-30T16:12:56;29.72;54.93
65122;HTU21D;51701;45.036;38.924;2022-07-30T16:15:22;29.62;54.91
65122;HTU21D;51701;45.036;38.924;2022-07-30T16:17:48;29.51;54.97